LFBOLFBP

Guest
Details From LFBO - Toulouse Blagnac
To LFBP - Pau Pyrenees
Flight Number -
Tags decoded
Created
Modified
Stats Distance 89 nm / 164 km
Max Altitude 0 ft / 0 m
Waypoints 4
Social Downloads 3
Likes 0
Share VATSIM

Download

Looking for another format? Having issues loading an existing format? Contact us
Advertisement - Login to hide

Notes

Requested: LFBO OBUTO BAKRO LFBP

Route

LFBO OBUTO BAKRO LFBP

ID Type Via Altitude (ft/m) Position (lat/lon) Dist (leg/tot) Name
O LFBO APT - 0 / 0 43.62903 / 1.36397 - / 0 nm Toulouse Blagnac
OBUTO FIX - 0 / 0 43.15917 / 0.02083 65 / 65 nm
BAKRO FIX - 0 / 0 43.23000 / -0.13361 7 / 73 nm
O LFBP APT - 0 / 0 43.38108 / -0.42075 15 / 88 nm Pau Pyrenees

Altitude Profile

Advertisement - Login to hide

LFBO

Details ICAO LFBO (TLS)
Name Toulouse Blagnac
Region France
Timezone Europe/Paris (UTC+2.0)
Stats Elevation 499 ft / 152 m (AMSL)
Location 43.629000° 1.363970°
Runways 2
Magnetic Variation 0.778° E

METAR

LFBO 260730Z AUTO 19004KT 170V230 9999 FEW009 21/18 Q1017 NOSIG

Decode

TAF

TAF LFBO 260500Z 2606/2712 VRB03KT CAVOK BECMG 2609/2611 14007KT TEMPO 2615/2620 14015KT PROB40 TEMPO 2706/2708 BKN012 BECMG 2710/2711 24004KT

Decode

Departure Runways

ID Width Length Bearing (true/mag) Surface Threshold Overrun Markings Lighting
14L 148 ft / 45 m 9,923 ft / 3,025 m 143.00° / 142.22° ASPHALT 0 ft / 0 m 30 ft / 9 m PREC-APP CENTERLINE EDGE THRESHOLD ALSF-I REIL-OMNI
14R 148 ft / 45 m 11,484 ft / 3,500 m 142.99° / 142.21° ASPHALT 0 ft / 0 m 295 ft / 90 m PREC-APP CENTERLINE EDGE THRESHOLD ALSF-II TDZ REIL-OMNI
32L 148 ft / 45 m 11,484 ft / 3,500 m 323.01° / 322.23° ASPHALT 0 ft / 0 m 194 ft / 59 m PREC-APP CENTERLINE EDGE THRESHOLD REIL-OMNI
32R 148 ft / 45 m 9,923 ft / 3,025 m 323.02° / 322.24° ASPHALT 0 ft / 0 m 0 ft / 0 m PREC-APP CENTERLINE EDGE THRESHOLD REIL-OMNI

LFBP

Details ICAO LFBP (PUF)
Name Pau Pyrenees
Region France
Timezone Europe/Paris (UTC+2.0)
Stats Elevation 616 ft / 188 m (AMSL)
Location 43.381100° -0.420750°
Runways 1
Magnetic Variation 0.301° E

METAR

LFBP 260730Z AUTO VRB02KT CAVOK 22/18 Q1016 NOSIG

Decode

TAF

TAF LFBP 260500Z 2606/2706 VRB02KT 8000 NSC BECMG 2606/2608 CAVOK PROB30 TEMPO 2612/2618 BKN080TCU BECMG 2621/2623 BKN011

Decode

Destination Runways

ID Width Length Bearing (true/mag) Surface Threshold Overrun Markings Lighting
13 148 ft / 45 m 8,191 ft / 2,497 m 125.89° / 125.59° ASPHALT 0 ft / 0 m 0 ft / 0 m APP CENTERLINE EDGE THRESHOLD REIL-OMNI
31 148 ft / 45 m 8,191 ft / 2,497 m 305.90° / 305.60° ASPHALT 0 ft / 0 m 0 ft / 0 m PREC-APP CENTERLINE EDGE THRESHOLD RAIL TDZ REIL-OMNI

Approach Navaids

Runway Type Ident Frequency Range Bearing (true/mag) Slope Elevation
31 DME PU 110.10 MHz 18 nm / 33 km - - 608 ft / 185 m (AMSL)
31 LOC-ILS PU 110.10 MHz 18 nm / 33 km 305.89° / 305.59 ° - 576 ft / 176 m (AMSL)
31 GS PU 110.10 MHz 10 nm / 19 km 306.79° / 306.49 ° 3.00° 676 ft / 206 m (AMSL)

Popular Alternatives